Time;durP1;ratioP1;P1;durP2;ratioP2;P2;SDS_P1;SDS_P2;PMS_P1;PMS_P2;Temp;Humidity;BMP_temperature;BMP_pressure;BME280_temperature;BME280_humidity;BME280_pressure;Samples;Min_cycle;Max_cycle;Signal;HPM_P1;HPM_P2
2023/02/24 00:02:04;;;;;;;24.23;12.38;;;8.70;90.50;;;;;;4990325;28;20042;-58
2023/02/24 00:04:33;;;;;;;23.75;13.02;;;8.60;90.40;;;;;;5000357;28;20697;-60
2023/02/24 00:07:09;;;;;;;24.85;12.45;;;8.70;90.40;;;;;;4998183;28;20514;-57
2023/02/24 00:09:43;;;;;;;23.15;11.82;;;8.60;90.20;;;;;;4997754;28;20073;-58
2023/02/24 00:12:12;;;;;;;23.10;11.73;;;8.60;90.20;;;;;;5002170;28;20057;-57
2023/02/24 00:14:42;;;;;;;19.45;10.15;;;8.60;90.10;;;;;;5000921;28;20056;-56
2023/02/24 00:17:17;;;;;;;19.92;9.88;;;8.60;90.00;;;;;;5000509;28;20047;-59
2023/02/24 00:19:51;;;;;;;18.90;9.52;;;8.60;90.10;;;;;;4999587;28;20116;-58
2023/02/24 00:22:19;;;;;;;18.70;9.57;;;8.60;90.20;;;;;;5001506;28;20043;-58
2023/02/24 00:24:46;;;;;;;20.67;10.13;;;8.60;90.30;;;;;;4981930;28;20108;-58
2023/02/24 00:27:13;;;;;;;17.98;8.98;;;8.50;90.30;;;;;;5003667;28;20101;-58
2023/02/24 00:29:40;;;;;;;18.85;9.05;;;8.50;90.20;;;;;;5002679;28;20062;-59
2023/02/24 00:32:11;;;;;;;16.73;8.30;;;8.60;90.20;;;;;;5000345;28;20053;-57
2023/02/24 00:34:39;;;;;;;;;;;8.50;90.20;;;;;;4987900;28;20554;-58
2023/02/24 00:37:06;;;;;;;16.63;7.50;;;8.50;90.20;;;;;;4996875;28;19925;-59
2023/02/24 00:39:35;;;;;;;17.35;8.13;;;8.50;90.20;;;;;;5004943;28;20077;-58
2023/02/24 00:42:04;;;;;;;18.58;8.57;;;8.50;90.20;;;;;;4996538;28;20038;-59
2023/02/24 00:44:33;;;;;;;16.40;8.50;;;8.50;90.20;;;;;;5005054;28;20544;-58
2023/02/24 00:47:01;;;;;;;16.63;7.80;;;8.50;90.20;;;;;;4990902;28;20050;-59
2023/02/24 00:49:30;;;;;;;17.23;8.10;;;8.50;90.20;;;;;;5005277;28;20084;-59
2023/02/24 00:51:59;;;;;;;16.17;9.35;;;8.50;90.30;;;;;;5001745;28;20038;-59
2023/02/24 00:54:27;;;;;;;16.38;8.18;;;8.40;90.40;;;;;;5004150;28;20046;-58
2023/02/24 00:56:54;;;;;;;18.40;8.38;;;8.40;90.40;;;;;;4989190;28;20045;-59
2023/02/24 00:59:22;;;;;;;15.88;8.30;;;8.40;90.50;;;;;;4990249;28;20068;-59
2023/02/24 01:01:50;;;;;;;14.88;8.75;;;8.40;90.50;;;;;;5009041;28;20050;-59
2023/02/24 01:04:18;;;;;;;19.60;9.00;;;8.50;90.40;;;;;;5006982;28;20112;-58
2023/02/24 01:06:48;;;;;;;19.20;9.25;;;8.50;90.50;;;;;;4989784;28;20057;-57
2023/02/24 01:09:19;;;;;;;17.65;9.10;;;8.40;90.30;;;;;;5003459;28;20042;-59
2023/02/24 01:14:36;;;;;;;17.38;8.98;;;8.50;90.10;;;;;;4989660;28;20057;-59
2023/02/24 01:17:03;;;;;;;17.75;8.30;;;8.40;90.10;;;;;;5007993;28;20447;-59
2023/02/24 01:19:32;;;;;;;17.17;8.70;;;8.40;90.10;;;;;;5009981;28;20051;-58
2023/02/24 01:22:04;;;;;;;17.75;9.25;;;8.40;90.20;;;;;;5005264;28;20133;-58
2023/02/24 01:24:36;;;;;;;17.52;9.15;;;8.40;90.20;;;;;;4999898;28;20057;-58
2023/02/24 01:27:03;;;;;;;18.92;8.57;;;8.40;90.20;;;;;;5003068;28;20054;-58
2023/02/24 01:29:31;;;;;;;17.48;8.88;;;8.40;90.10;;;;;;5004138;28;20057;-58
2023/02/24 01:31:58;;;;;;;15.00;8.35;;;8.40;90.10;;;;;;4989109;28;20419;-59
2023/02/24 01:34:26;;;;;;;19.67;8.85;;;8.30;90.10;;;;;;4982772;28;20069;-59
2023/02/24 01:36:54;;;;;;;19.77;10.02;;;8.40;90.10;;;;;;5001505;28;20053;-58
2023/02/24 01:39:21;;;;;;;18.92;9.60;;;8.30;90.10;;;;;;5005156;28;20137;-60
2023/02/24 01:41:51;;;;;;;21.02;8.88;;;8.30;90.20;;;;;;5003136;28;20054;-60
2023/02/24 01:44:42;;;;;;;;;;;8.30;90.20;;;;;;4987180;28;20074;-58
2023/02/24 01:47:10;;;;;;;18.52;8.63;;;8.30;90.20;;;;;;4975701;28;19929;-58
2023/02/24 01:49:40;;;;;;;17.60;8.40;;;8.20;90.30;;;;;;5000271;28;20072;-58
2023/02/24 01:52:10;;;;;;;18.02;8.45;;;8.20;90.20;;;;;;5001275;28;20050;-59
2023/02/24 01:54:42;;;;;;;17.95;7.97;;;8.20;90.30;;;;;;5001793;28;20054;-58
2023/02/24 01:57:15;;;;;;;17.83;8.63;;;8.20;90.30;;;;;;5003847;28;20137;-59
2023/02/24 01:59:45;;;;;;;17.55;8.68;;;8.20;90.30;;;;;;4986291;28;20455;-58
2023/02/24 02:02:15;;;;;;;16.17;8.65;;;8.20;90.40;;;;;;5002317;28;20046;-60
2023/02/24 02:04:45;;;;;;;16.60;8.50;;;8.20;90.40;;;;;;5005249;28;20488;-58
2023/02/24 02:07:16;;;;;;;17.85;8.15;;;8.10;90.50;;;;;;4984403;28;20052;-59
2023/02/24 02:09:44;;;;;;;17.17;8.05;;;8.10;90.60;;;;;;5003074;28;20079;-59
2023/02/24 02:12:14;;;;;;;16.25;8.30;;;8.10;90.60;;;;;;5001434;28;20160;-58
2023/02/24 02:14:46;;;;;;;18.65;9.07;;;8.10;90.60;;;;;;5000509;28;20058;-58
2023/02/24 02:17:25;;;;;;;17.65;8.35;;;8.10;90.70;;;;;;5002872;28;20066;-58
2023/02/24 02:20:33;;;;;;;19.58;8.63;;;8.10;90.70;;;;;;5003445;28;20049;-58
2023/02/24 02:23:27;;;;;;;16.60;7.55;;;8.10;90.80;;;;;;5006287;28;20857;-58
2023/02/24 02:26:12;;;;;;;16.75;8.00;;;8.10;90.80;;;;;;5001797;28;20041;-58
2023/02/24 02:29:21;;;;;;;16.13;7.00;;;8.10;90.80;;;;;;5000342;28;20435;-57
2023/02/24 02:32:22;;;;;;;16.63;7.43;;;8.10;90.70;;;;;;4979434;28;20120;-62
2023/02/24 02:34:53;;;;;;;14.65;7.40;;;8.10;90.70;;;;;;5005439;28;20108;-62
2023/02/24 02:37:27;;;;;;;16.08;8.00;;;8.10;90.80;;;;;;4985247;28;20477;-60
2023/02/24 02:40:00;;;;;;;15.82;7.53;;;8.10;90.70;;;;;;5003370;28;20052;-61
2023/02/24 02:42:30;;;;;;;18.10;8.52;;;8.00;90.80;;;;;;5000456;28;20050;-66
2023/02/24 02:45:06;;;;;;;18.75;8.52;;;8.00;90.80;;;;;;5005020;28;20054;-68
2023/02/24 02:47:40;;;;;;;18.13;9.15;;;8.00;90.80;;;;;;4984384;28;20050;-68
2023/02/24 02:50:17;;;;;;;18.38;8.60;;;8.00;90.70;;;;;;5003304;28;20562;-68
2023/02/24 02:52:52;;;;;;;18.88;9.38;;;8.00;90.80;;;;;;5004679;28;20428;-68
2023/02/24 02:55:24;;;;;;;19.70;9.32;;;8.00;90.80;;;;;;5002417;28;20072;-67
2023/02/24 02:58:00;;;;;;;16.05;8.48;;;8.00;90.80;;;;;;5008903;28;20164;-67
2023/02/24 03:00:29;;;;;;;;;;;8.00;90.90;;;;;;4997461;28;20045;-60
2023/02/24 03:03:02;;;;;;;18.75;8.75;;;8.00;90.90;;;;;;5006932;28;20012;-59
2023/02/24 03:05:45;;;;;;;18.83;9.10;;;8.00;90.80;;;;;;4977083;28;20141;-60
2023/02/24 03:08:17;;;;;;;20.02;10.15;;;8.00;90.80;;;;;;4984664;28;20507;-59
2023/02/24 03:10:49;;;;;;;19.60;9.55;;;8.00;90.80;;;;;;4996588;28;20060;-59
2023/02/24 03:13:21;;;;;;;20.70;10.32;;;7.90;90.90;;;;;;5003574;28;20049;-59
2023/02/24 03:15:51;;;;;;;16.77;8.35;;;8.00;90.90;;;;;;4986560;28;20062;-58
2023/02/24 03:18:20;;;;;;;;;;;8.00;90.90;;;;;;4999521;28;20056;-59
2023/02/24 03:20:53;;;;;;;21.77;9.52;;;7.90;90.90;;;;;;5003161;28;20905;-59
2023/02/24 03:23:25;;;;;;;19.27;9.02;;;7.90;90.90;;;;;;4984116;28;20440;-58
2023/02/24 03:25:58;;;;;;;19.15;8.32;;;7.90;91.00;;;;;;5001700;28;20130;-58
2023/02/24 03:28:32;;;;;;;16.25;8.48;;;7.90;91.00;;;;;;4984570;28;20050;-60
2023/02/24 03:31:09;;;;;;;17.15;8.70;;;7.90;91.00;;;;;;4984390;28;20176;-62
2023/02/24 03:33:41;;;;;;;20.35;9.23;;;7.90;91.00;;;;;;4981051;28;20535;-63
2023/02/24 03:36:13;;;;;;;22.55;10.10;;;7.90;91.00;;;;;;4984054;28;20054;-64
2023/02/24 03:38:42;;;;;;;21.08;9.45;;;7.90;91.00;;;;;;5000921;28;20046;-63
2023/02/24 03:41:12;;;;;;;19.40;9.32;;;7.90;91.00;;;;;;4986362;28;20046;-61
2023/02/24 03:43:43;;;;;;;17.65;8.18;;;7.90;91.00;;;;;;4985549;28;20135;-61
2023/02/24 03:46:11;;;;;;;17.83;8.75;;;7.90;91.00;;;;;;4987186;28;20051;-60
2023/02/24 03:48:43;;;;;;;16.80;9.27;;;8.00;91.00;;;;;;4985168;28;20147;-60
2023/02/24 03:51:17;;;;;;;16.58;8.35;;;8.00;90.90;;;;;;4980743;28;20133;-64
2023/02/24 03:54:00;;;;;;;17.55;8.30;;;7.90;90.80;;;;;;4995737;28;20067;-62
2023/02/24 03:56:45;;;;;;;18.98;8.98;;;8.00;90.90;;;;;;4996779;28;20220;-61
2023/02/24 03:59:22;;;;;;;18.80;9.18;;;8.00;90.80;;;;;;5002211;28;20127;-63
2023/02/24 04:01:56;;;;;;;19.55;8.70;;;7.90;90.90;;;;;;4999732;28;20498;-62
2023/02/24 04:04:32;;;;;;;16.40;8.05;;;7.90;90.90;;;;;;4988904;28;20054;-62
2023/02/24 04:07:35;;;;;;;21.75;9.75;;;8.00;90.90;;;;;;4996741;28;20045;-63
2023/02/24 04:10:08;;;;;;;22.13;9.30;;;7.90;90.90;;;;;;5000558;28;20050;-63
2023/02/24 04:12:45;;;;;;;21.13;9.52;;;7.90;91.00;;;;;;4983912;28;20056;-64
2023/02/24 04:15:19;;;;;;;20.77;9.57;;;7.90;90.90;;;;;;4987898;28;20054;-63
2023/02/24 04:17:52;;;;;;;22.75;10.20;;;7.90;90.90;;;;;;5003103;28;20050;-63
2023/02/24 04:20:22;;;;;;;20.15;10.00;;;7.90;90.90;;;;;;4989787;28;20042;-64
2023/02/24 04:23:01;;;;;;;21.45;10.80;;;7.80;91.00;;;;;;5007024;28;20045;-63
2023/02/24 04:25:31;;;;;;;21.27;10.70;;;7.80;91.00;;;;;;4986254;28;20058;-63
2023/02/24 04:28:01;;;;;;;23.20;11.27;;;7.90;91.00;;;;;;5005034;28;20092;-64
2023/02/24 04:30:33;;;;;;;23.38;11.32;;;7.90;90.90;;;;;;4986440;28;20099;-63
2023/02/24 04:33:00;;;;;;;20.42;10.32;;;7.80;90.90;;;;;;4991387;28;20101;-64
2023/02/24 04:35:28;;;;;;;26.45;12.05;;;7.80;91.00;;;;;;5001422;28;20053;-64
2023/02/24 04:37:57;;;;;;;22.95;11.10;;;7.80;91.00;;;;;;4988709;28;20042;-64
2023/02/24 04:40:25;;;;;;;20.23;9.88;;;7.80;91.00;;;;;;4997714;28;20046;-62
2023/02/24 04:42:54;;;;;;;22.38;10.07;;;7.80;91.00;;;;;;5002738;28;20052;-64
2023/02/24 04:45:23;;;;;;;22.85;9.75;;;7.80;91.00;;;;;;5003288;28;20137;-64
2023/02/24 04:47:54;;;;;;;23.42;10.15;;;7.80;90.90;;;;;;4983703;28;20046;-64
2023/02/24 04:50:24;;;;;;;21.75;9.80;;;7.80;90.90;;;;;;5000249;28;20045;-62
2023/02/24 04:52:52;;;;;;;20.20;10.03;;;7.80;90.90;;;;;;5006257;28;20045;-63
2023/02/24 04:55:22;;;;;;;23.45;10.85;;;7.80;90.90;;;;;;5005951;28;20054;-63
2023/02/24 04:57:49;;;;;;;21.80;10.43;;;7.80;90.80;;;;;;5007141;28;20038;-63
2023/02/24 05:00:25;;;;;;;22.08;10.27;;;7.80;90.80;;;;;;5006734;28;20238;-63
2023/02/24 05:02:54;;;;;;;21.27;10.10;;;7.80;90.70;;;;;;5006620;28;20148;-63
2023/02/24 05:05:24;;;;;;;22.77;9.68;;;7.80;90.70;;;;;;5004276;28;20566;-63
2023/02/24 05:07:51;;;;;;;18.80;8.90;;;7.80;90.70;;;;;;5004234;28;20070;-62
2023/02/24 05:10:21;;;;;;;18.58;9.82;;;7.80;90.70;;;;;;4999818;28;20065;-62
2023/02/24 05:12:47;;;;;;;22.85;10.43;;;7.80;90.70;;;;;;5005121;28;20054;-63
2023/02/24 05:15:15;;;;;;;22.13;9.57;;;7.80;90.60;;;;;;5003965;28;20046;-62
2023/02/24 05:17:44;;;;;;;22.58;10.32;;;7.70;90.70;;;;;;5006234;28;20042;-62
2023/02/24 05:22:56;;;;;;;21.40;10.00;;;7.70;90.70;;;;;;5007542;28;20050;-62
2023/02/24 05:25:25;;;;;;;19.58;9.68;;;7.70;90.70;;;;;;5005238;28;20054;-62
2023/02/24 05:27:52;;;;;;;22.13;10.13;;;7.70;90.70;;;;;;5001704;28;20086;-64
2023/02/24 05:30:20;;;;;;;23.55;10.65;;;7.70;90.70;;;;;;5000906;28;20046;-61
2023/02/24 05:32:46;;;;;;;18.90;8.93;;;7.70;90.50;;;;;;5002959;28;20049;-63
2023/02/24 05:35:13;;;;;;;21.98;10.02;;;7.70;90.50;;;;;;5004021;28;20377;-62
2023/02/24 05:37:41;;;;;;;24.80;9.93;;;7.70;90.60;;;;;;5004854;28;20095;-62
2023/02/24 05:40:13;;;;;;;25.05;10.00;;;7.70;90.70;;;;;;5005498;28;20096;-63
2023/02/24 05:42:44;;;;;;;17.83;9.30;;;7.70;90.50;;;;;;5007958;28;20050;-63
2023/02/24 05:45:11;;;;;;;;;;;7.70;90.60;;;;;;5002938;28;20035;-62
2023/02/24 05:47:38;;;;;;;20.85;9.10;;;7.70;90.60;;;;;;5003411;28;20431;-63
2023/02/24 05:50:08;;;;;;;21.73;9.52;;;7.70;90.60;;;;;;5005795;28;20133;-64
2023/02/24 05:52:36;;;;;;;22.48;9.55;;;7.70;90.60;;;;;;5000419;28;20053;-62
2023/02/24 05:55:06;;;;;;;19.05;8.68;;;7.70;90.70;;;;;;5004423;28;20062;-63
2023/02/24 05:57:35;;;;;;;21.75;9.95;;;7.70;90.70;;;;;;5002283;28;20460;-62
2023/02/24 06:00:13;;;;;;;20.38;9.57;;;7.70;90.70;;;;;;5005310;28;20030;-62
2023/02/24 06:02:48;;;;;;;18.00;9.18;;;7.70;90.70;;;;;;5004247;28;20060;-63
2023/02/24 06:05:24;;;;;;;19.95;8.80;;;7.70;90.50;;;;;;5004542;28;20042;-62
2023/02/24 06:08:02;;;;;;;19.13;9.05;;;7.70;90.50;;;;;;5004156;28;20049;-63
2023/02/24 06:10:32;;;;;;;19.33;8.48;;;7.70;90.40;;;;;;4999152;28;20047;-63
2023/02/24 06:13:00;;;;;;;17.05;8.80;;;7.70;90.40;;;;;;5002287;28;20531;-63
2023/02/24 06:15:30;;;;;;;18.58;8.00;;;7.70;90.20;;;;;;5005472;28;20053;-63
2023/02/24 06:17:59;;;;;;;19.80;8.67;;;7.70;90.10;;;;;;5003894;28;20173;-63
2023/02/24 06:20:28;;;;;;;17.65;8.82;;;7.60;90.20;;;;;;5006245;28;20042;-63
2023/02/24 06:22:56;;;;;;;17.02;7.72;;;7.70;90.20;;;;;;5005176;28;20056;-62
2023/02/24 06:25:24;;;;;;;17.20;8.05;;;7.60;90.20;;;;;;5002176;28;20073;-62
2023/02/24 06:27:53;;;;;;;17.35;8.30;;;7.60;90.30;;;;;;5006376;28;20471;-62
2023/02/24 06:30:22;;;;;;;20.73;9.00;;;7.60;90.30;;;;;;5001251;28;20053;-63
2023/02/24 06:32:50;;;;;;;19.45;9.52;;;7.60;90.30;;;;;;5007009;28;20050;-62
2023/02/24 06:35:18;;;;;;;18.58;8.27;;;7.70;90.20;;;;;;5007882;28;20112;-62
2023/02/24 06:37:45;;;;;;;19.23;9.18;;;7.70;90.20;;;;;;5003733;28;20489;-62
2023/02/24 06:40:16;;;;;;;18.80;8.48;;;7.60;90.20;;;;;;5002726;28;20412;-62
2023/02/24 06:42:46;;;;;;;;;;;7.70;90.10;;;;;;5002844;28;20115;-63
2023/02/24 06:45:14;;;;;;;22.13;9.02;;;7.70;90.10;;;;;;5001781;28;19921;-64
2023/02/24 06:47:42;;;;;;;18.00;8.77;;;7.70;90.00;;;;;;5001488;28;20042;-63
2023/02/24 06:50:12;;;;;;;19.08;8.27;;;7.70;89.90;;;;;;5000939;28;20049;-62
2023/02/24 06:52:39;;;;;;;19.58;9.27;;;7.70;90.00;;;;;;5005197;28;20423;-63
2023/02/24 06:55:23;;;;;;;21.20;10.98;;;7.70;90.00;;;;;;5004713;28;20129;-62
2023/02/24 06:57:58;;;;;;;20.95;9.43;;;7.70;89.90;;;;;;5001468;28;21079;-63
2023/02/24 07:00:37;;;;;;;19.13;8.80;;;7.70;89.80;;;;;;5003128;28;20062;-63
2023/02/24 07:03:13;;;;;;;20.40;9.25;;;7.70;89.70;;;;;;5004502;28;20049;-62
2023/02/24 07:05:48;;;;;;;22.33;9.18;;;7.70;89.40;;;;;;4999470;28;20050;-62
2023/02/24 07:08:21;;;;;;;20.70;9.32;;;7.70;89.40;;;;;;5003176;28;20553;-63
2023/02/24 07:10:54;;;;;;;20.55;9.35;;;7.60;89.40;;;;;;5000679;28;20485;-63
2023/02/24 07:13:23;;;;;;;19.90;9.52;;;7.70;89.40;;;;;;5001830;28;20128;-63
2023/02/24 07:15:50;;;;;;;22.02;9.95;;;7.70;89.40;;;;;;5001667;28;20085;-62
2023/02/24 07:18:17;;;;;;;20.60;9.40;;;7.70;89.40;;;;;;5004246;28;20041;-63
2023/02/24 07:20:46;;;;;;;19.80;8.88;;;7.70;89.30;;;;;;5002073;28;20378;-62
2023/02/24 07:23:14;;;;;;;22.35;9.57;;;7.70;89.30;;;;;;5005775;28;20058;-62
2023/02/24 07:25:42;;;;;;;20.30;8.88;;;7.70;89.20;;;;;;5001329;28;20058;-63
2023/02/24 07:28:09;;;;;;;19.75;8.27;;;7.70;89.30;;;;;;5004504;28;20057;-62
2023/02/24 07:30:38;;;;;;;20.60;9.45;;;7.70;89.40;;;;;;4997564;28;20062;-62
2023/02/24 07:33:05;;;;;;;24.02;10.32;;;7.70;89.50;;;;;;5005073;28;20087;-62
2023/02/24 07:35:34;;;;;;;20.90;9.85;;;7.70;89.50;;;;;;5000645;28;20046;-62
2023/02/24 07:38:04;;;;;;;23.42;10.27;;;7.70;89.50;;;;;;4999687;28;20052;-62
2023/02/24 07:40:32;;;;;;;21.65;10.52;;;7.70;89.40;;;;;;4998777;28;20136;-62
2023/02/24 07:43:00;;;;;;;19.27;10.05;;;7.70;89.20;;;;;;5001870;28;20445;-62
2023/02/24 07:45:28;;;;;;;23.48;9.90;;;7.80;89.10;;;;;;4999629;28;20049;-64
2023/02/24 07:47:56;;;;;;;20.85;9.45;;;7.80;89.10;;;;;;4999750;28;20128;-62
2023/02/24 07:50:23;;;;;;;19.63;9.27;;;7.80;89.10;;;;;;5002484;28;20062;-62
2023/02/24 07:52:50;;;;;;;20.52;9.63;;;7.80;89.00;;;;;;5004847;28;20516;-62
2023/02/24 07:55:19;;;;;;;21.38;9.05;;;7.80;89.00;;;;;;5001556;28;20046;-61
2023/02/24 07:57:47;;;;;;;24.98;9.38;;;7.80;89.00;;;;;;5002983;28;20493;-63
2023/02/24 08:00:18;;;;;;;21.92;9.73;;;7.90;88.90;;;;;;5002343;28;20104;-63
2023/02/24 08:02:45;;;;;;;;;;;7.80;88.90;;;;;;5004322;28;20058;-63
2023/02/24 08:05:12;;;;;;;23.45;10.38;;;7.80;88.60;;;;;;5000663;28;20157;-63
2023/02/24 08:07:39;;;;;;;21.52;10.30;;;7.80;88.50;;;;;;4998016;28;20054;-63
2023/02/24 08:10:22;;;;;;;24.08;9.98;;;7.90;88.60;;;;;;4999832;28;20060;-64
2023/02/24 08:12:54;;;;;;;23.90;9.90;;;7.90;88.60;;;;;;5002155;28;20076;-63
2023/02/24 08:15:23;;;;;;;23.08;10.35;;;7.90;88.40;;;;;;5002877;28;20520;-63
2023/02/24 08:17:52;;;;;;;24.70;10.65;;;7.90;88.50;;;;;;4999276;28;20178;-61
2023/02/24 08:20:23;;;;;;;24.23;11.13;;;7.90;88.50;;;;;;5004036;28;20114;-63
2023/02/24 08:22:52;;;;;;;22.58;10.85;;;8.00;88.40;;;;;;5002875;28;20046;-65
2023/02/24 08:25:21;;;;;;;23.85;11.15;;;8.00;88.40;;;;;;5001512;28;20058;-62
2023/02/24 08:27:55;;;;;;;22.50;11.38;;;8.00;88.30;;;;;;5000854;28;20139;-62
2023/02/24 08:30:23;;;;;;;26.77;11.98;;;8.00;88.20;;;;;;5004117;28;20038;-62
2023/02/24 08:32:55;;;;;;;26.50;12.25;;;8.10;88.10;;;;;;5001002;28;20104;-62
2023/02/24 08:35:24;;;;;;;27.90;12.75;;;8.10;87.80;;;;;;4994587;28;20846;-62
2023/02/24 08:37:53;;;;;;;25.73;12.75;;;8.10;87.90;;;;;;5001934;28;20557;-62
2023/02/24 08:40:49;;;;;;;31.13;13.50;;;8.20;87.90;;;;;;5000057;28;20060;-62
2023/02/24 08:43:29;;;;;;;29.15;13.95;;;8.20;87.80;;;;;;4997133;28;20054;-63
2023/02/24 08:46:02;;;;;;;30.70;14.15;;;8.30;87.40;;;;;;5000277;28;20057;-62
2023/02/24 08:48:36;;;;;;;29.58;14.00;;;8.40;87.40;;;;;;5005089;28;20050;-62
2023/02/24 08:51:08;;;;;;;30.75;14.75;;;8.40;87.30;;;;;;5005343;28;20046;-62
2023/02/24 08:53:39;;;;;;;26.27;12.70;;;8.50;87.00;;;;;;5005056;28;20050;-62
2023/02/24 08:56:10;;;;;;;28.90;14.35;;;8.50;87.10;;;;;;5006674;28;20412;-61
2023/02/24 08:58:45;;;;;;;30.38;14.20;;;8.50;86.90;;;;;;5008560;28;20504;-63
2023/02/24 09:01:22;;;;;;;32.00;14.48;;;8.50;87.00;;;;;;5003831;28;20054;-61
2023/02/24 09:03:51;;;;;;;28.67;14.48;;;8.50;86.90;;;;;;5002741;28;20078;-63
2023/02/24 09:06:24;;;;;;;31.63;16.15;;;8.60;87.10;;;;;;5005585;28;20050;-62
2023/02/24 09:09:16;;;;;;;31.52;14.63;;;8.60;87.00;;;;;;5002486;28;20128;-63
2023/02/24 09:11:43;;;;;;;26.63;14.25;;;8.60;86.50;;;;;;5004968;28;20132;-62
2023/02/24 09:14:16;;;;;;;28.67;14.77;;;8.60;86.60;;;;;;5002086;28;20065;-62
2023/02/24 09:17:00;;;;;;;31.05;15.15;;;8.60;86.40;;;;;;5004098;28;20069;-62
2023/02/24 09:22:30;;;;;;;31.40;14.85;;;8.60;86.10;;;;;;5005060;28;20057;-66
2023/02/24 09:25:16;;;;;;;29.48;15.02;;;8.60;86.10;;;;;;5006264;28;20065;-66
2023/02/24 09:27:46;;;;;;;28.95;14.73;;;8.70;86.30;;;;;;5001334;28;20054;-66
2023/02/24 09:30:34;;;;;;;30.00;13.82;;;8.70;86.00;;;;;;5005263;28;20630;-66
2023/02/24 09:33:06;;;;;;;30.30;13.68;;;8.70;85.60;;;;;;5003159;28;20046;-66
2023/02/24 09:35:40;;;;;;;32.00;14.02;;;8.80;85.50;;;;;;5004186;28;20409;-66
2023/02/24 09:38:07;;;;;;;31.15;14.15;;;8.90;86.00;;;;;;5006521;28;20058;-66
2023/02/24 09:40:39;;;;;;;30.85;14.95;;;8.90;85.10;;;;;;5002677;28;20054;-66
2023/02/24 09:43:16;;;;;;;30.02;14.10;;;9.00;85.20;;;;;;5002810;28;20050;-65
2023/02/24 09:45:52;;;;;;;26.05;13.43;;;9.00;85.00;;;;;;5004862;28;20043;-66
2023/02/24 09:48:30;;;;;;;28.17;13.63;;;9.10;84.30;;;;;;5005858;28;20054;-65
2023/02/24 09:51:02;;;;;;;29.75;13.90;;;9.10;84.90;;;;;;5003115;28;20448;-67
2023/02/24 09:53:37;;;;;;;27.13;13.60;;;9.20;84.30;;;;;;5003454;28;20421;-65
2023/02/24 09:56:20;;;;;;;30.55;14.27;;;9.20;84.00;;;;;;5004576;28;20931;-66
2023/02/24 09:58:51;;;;;;;26.38;13.40;;;9.30;84.00;;;;;;5003064;28;20065;-66
2023/02/24 10:01:42;;;;;;;27.83;14.93;;;9.30;83.80;;;;;;5002987;28;20064;-68
2023/02/24 10:04:26;;;;;;;29.50;13.70;;;9.30;84.20;;;;;;5006338;28;20038;-67
2023/02/24 10:07:01;;;;;;;26.85;13.35;;;9.30;84.00;;;;;;5006171;28;20116;-66
2023/02/24 10:09:34;;;;;;;27.38;13.00;;;9.30;83.50;;;;;;5005575;28;20065;-66
2023/02/24 10:12:03;;;;;;;;;;;9.30;83.70;;;;;;5007726;28;20118;-66
2023/02/24 10:14:37;;;;;;;23.85;11.57;;;9.20;83.70;;;;;;5007532;28;19987;-66
2023/02/24 10:17:24;;;;;;;27.55;12.82;;;9.20;83.00;;;;;;5000857;28;20045;-66
2023/02/24 10:19:59;;;;;;;25.42;12.85;;;9.20;83.60;;;;;;5006369;28;20050;-68
2023/02/24 10:22:39;;;;;;;29.25;13.75;;;9.20;83.30;;;;;;5007263;28;20100;-66
2023/02/24 10:25:22;;;;;;;28.73;12.85;;;9.40;82.50;;;;;;5006251;28;20149;-67
2023/02/24 10:27:58;;;;;;;23.52;12.13;;;9.50;82.50;;;;;;5003188;28;20476;-67
2023/02/24 10:30:45;;;;;;;27.30;13.18;;;9.50;82.20;;;;;;4998689;28;20409;-66
2023/02/24 10:33:24;;;;;;;21.02;10.15;;;9.60;81.50;;;;;;5000498;28;20141;-66
2023/02/24 10:36:03;;;;;;;24.00;11.50;;;9.60;81.10;;;;;;5009040;28;20611;-66
2023/02/24 10:38:31;;;;;;;21.35;10.13;;;9.70;81.10;;;;;;5004677;28;20920;-67
2023/02/24 10:40:59;;;;;;;19.60;10.00;;;9.70;80.10;;;;;;5003959;28;20124;-61
2023/02/24 10:43:30;;;;;;;22.05;9.63;;;9.70;80.30;;;;;;4997376;28;20473;-61
2023/02/24 10:46:05;;;;;;;18.75;9.57;;;9.70;79.80;;;;;;5003955;28;20049;-62
2023/02/24 10:48:38;;;;;;;18.40;9.63;;;9.70;78.30;;;;;;4998910;28;20154;-62
2023/02/24 10:51:18;;;;;;;17.92;8.32;;;9.70;79.30;;;;;;5006043;28;20045;-62
2023/02/24 10:54:08;;;;;;;17.50;8.48;;;9.70;79.50;;;;;;5004164;28;20078;-61
2023/02/24 10:56:53;;;;;;;18.20;9.18;;;9.70;78.10;;;;;;5000734;28;20054;-60
2023/02/24 10:59:39;;;;;;;18.17;9.07;;;9.70;78.30;;;;;;4998319;28;20053;-63
2023/02/24 11:02:23;;;;;;;17.38;9.40;;;9.80;78.50;;;;;;5000065;28;20505;-62
2023/02/24 11:05:03;;;;;;;19.92;9.13;;;9.80;78.30;;;;;;5002499;28;20491;-62
2023/02/24 11:07:42;;;;;;;19.17;9.57;;;9.80;78.20;;;;;;5000710;28;20076;-62
2023/02/24 11:10:13;;;;;;;17.33;9.25;;;9.80;77.70;;;;;;5004613;28;20528;-62
2023/02/24 11:18:22;;;;;;;15.23;7.40;;;9.80;76.20;;;;;;5001956;28;20058;-61
2023/02/24 11:20:52;;;;;;;14.50;7.55;;;9.90;75.80;;;;;;4999595;28;20052;-62
2023/02/24 11:23:22;;;;;;;;;;;9.90;75.00;;;;;;5001528;28;20050;-64
2023/02/24 11:25:52;;;;;;;15.85;7.45;;;9.90;74.90;;;;;;5003977;28;19923;-61
2023/02/24 11:28:57;;;;;;;16.48;7.63;;;10.00;74.70;;;;;;5000505;28;20058;-61
2023/02/24 11:31:40;;;;;;;14.57;7.95;;;10.00;74.00;;;;;;4987599;28;20070;-60
2023/02/24 11:34:11;;;;;;;15.85;8.10;;;10.00;74.90;;;;;;5004419;28;20050;-61
2023/02/24 11:36:53;;;;;;;16.17;8.07;;;10.10;74.00;;;;;;5003040;28;20049;-62
2023/02/24 11:39:45;;;;;;;15.52;7.43;;;10.10;75.00;;;;;;5001325;28;20049;-61
2023/02/24 11:42:16;;;;;;;15.15;6.93;;;10.00;74.70;;;;;;4999036;28;20081;-61
2023/02/24 11:44:51;;;;;;;12.23;6.43;;;10.00;73.60;;;;;;5002894;28;20088;-62
2023/02/24 11:47:25;;;;;;;14.70;7.00;;;10.10;74.50;;;;;;5000922;28;20441;-61
2023/02/24 11:50:00;;;;;;;13.60;7.07;;;10.10;73.00;;;;;;5002363;28;20049;-61
2023/02/24 11:52:37;;;;;;;14.77;6.57;;;10.20;74.40;;;;;;5002591;28;20038;-61
2023/02/24 11:55:13;;;;;;;13.75;6.90;;;10.20;72.50;;;;;;5000765;28;20481;-61
2023/02/24 11:57:46;;;;;;;13.00;6.80;;;10.20;73.50;;;;;;4997431;28;20053;-61
2023/02/24 12:00:19;;;;;;;11.70;6.22;;;10.10;73.10;;;;;;4996052;28;20151;-61
2023/02/24 12:02:53;;;;;;;12.93;6.57;;;10.20;72.80;;;;;;4999432;28;20058;-61
2023/02/24 12:05:24;;;;;;;11.40;5.63;;;10.20;73.60;;;;;;5002340;28;20397;-60
2023/02/24 12:07:55;;;;;;;12.15;6.40;;;10.10;72.20;;;;;;4997663;28;20044;-61
2023/02/24 12:10:26;;;;;;;11.30;5.65;;;10.10;72.50;;;;;;4999623;28;20046;-61
2023/02/24 12:13:02;;;;;;;14.05;6.43;;;10.10;72.90;;;;;;5001349;28;20052;-61
2023/02/24 12:15:35;;;;;;;11.48;5.75;;;10.10;73.90;;;;;;5000414;28;20046;-62
2023/02/24 12:18:12;;;;;;;15.02;6.78;;;10.10;72.10;;;;;;5001336;28;20061;-61
2023/02/24 12:20:44;;;;;;;14.18;6.85;;;10.10;72.50;;;;;;4998636;28;20069;-61
2023/02/24 12:23:17;;;;;;;11.05;6.28;;;10.00;73.50;;;;;;5006295;28;20038;-61
2023/02/24 12:25:57;;;;;;;13.50;6.55;;;10.10;72.50;;;;;;5005500;28;20057;-63
2023/02/24 12:28:37;;;;;;;12.63;6.50;;;10.00;73.60;;;;;;5007375;28;20054;-62
2023/02/24 12:31:13;;;;;;;11.32;5.78;;;10.00;72.30;;;;;;5003599;28;20073;-61
2023/02/24 12:33:50;;;;;;;11.80;5.60;;;10.00;72.10;;;;;;5004334;28;20042;-62
2023/02/24 12:36:27;;;;;;;12.35;6.50;;;10.00;73.40;;;;;;5007921;28;20069;-63
2023/02/24 12:39:05;;;;;;;13.02;6.85;;;10.00;71.30;;;;;;5005322;28;20125;-61
2023/02/24 12:41:46;;;;;;;15.15;6.93;;;9.90;71.40;;;;;;5007201;28;20684;-63
2023/02/24 12:44:26;;;;;;;15.70;7.25;;;9.90;72.70;;;;;;5006901;28;20049;-62
2023/02/24 12:47:02;;;;;;;15.95;7.32;;;9.70;71.00;;;;;;5006569;28;20058;-62
2023/02/24 12:49:54;;;;;;;17.27;7.43;;;9.70;73.50;;;;;;5007147;28;20053;-63
2023/02/24 12:52:31;;;;;;;13.10;6.30;;;9.70;71.70;;;;;;5004056;28;20155;-61
2023/02/24 12:55:08;;;;;;;13.63;6.93;;;9.70;73.00;;;;;;5009476;28;20041;-62
2023/02/24 12:57:43;;;;;;;16.45;7.55;;;9.70;71.70;;;;;;5007483;28;20038;-62
2023/02/24 13:00:18;;;;;;;17.05;7.57;;;9.70;70.80;;;;;;5005276;28;20163;-62
2023/02/24 13:03:00;;;;;;;12.85;6.80;;;9.70;71.10;;;;;;5005858;28;20065;-61
2023/02/24 13:05:31;;;;;;;14.48;6.90;;;9.70;71.10;;;;;;5006895;28;20038;-62
2023/02/24 13:08:21;;;;;;;13.80;6.38;;;9.70;70.30;;;;;;5006634;28;20062;-61
2023/02/24 13:11:00;;;;;;;13.27;6.28;;;9.80;70.30;;;;;;5003217;28;20505;-61
2023/02/24 13:13:37;;;;;;;14.00;7.05;;;9.80;71.00;;;;;;5008534;28;20038;-61
2023/02/24 13:16:04;;;;;;;14.70;7.10;;;9.80;70.50;;;;;;5007554;28;20077;-62
2023/02/24 13:18:33;;;;;;;13.20;7.07;;;9.80;71.00;;;;;;5007414;28;20538;-63
2023/02/24 13:21:09;;;;;;;15.35;7.75;;;9.80;70.40;;;;;;5007363;28;20121;-61
2023/02/24 13:23:40;;;;;;;15.70;7.82;;;9.80;70.30;;;;;;5007651;28;20046;-60
2023/02/24 13:26:09;;;;;;;;;;;9.80;71.40;;;;;;5006970;28;20056;-60
2023/02/24 13:28:37;;;;;;;16.05;7.80;;;9.70;70.00;;;;;;5006435;28;19980;-62
2023/02/24 13:31:07;;;;;;;13.43;7.20;;;9.70;70.30;;;;;;5006489;28;20047;-62